sensor_id;sensor_type;location;lat;lon;timestamp;pressure;altitude;pressure_sealevel;temperature;humidity
11415;BME280;5763;42.714;23.244;2022-12-07T00:00:17;94552.41;;;8.92;76.03
11415;BME280;5763;42.714;23.244;2022-12-07T00:02:44;94541.88;;;9.03;75.81
11415;BME280;5763;42.714;23.244;2022-12-07T00:05:10;94552.59;;;8.97;76.14
11415;BME280;5763;42.714;23.244;2022-12-07T00:07:37;94539.50;;;8.92;76.13
11415;BME280;5763;42.714;23.244;2022-12-07T00:10:06;94547.09;;;8.88;76.75
11415;BME280;5763;42.714;23.244;2022-12-07T00:12:33;94547.09;;;8.88;77.09
11415;BME280;5763;42.714;23.244;2022-12-07T00:15:00;94544.66;;;8.90;75.95
11415;BME280;5763;42.714;23.244;2022-12-07T00:17:27;94555.09;;;8.70;76.77
11415;BME280;5763;42.714;23.244;2022-12-07T00:19:53;94549.41;;;8.65;76.78
11415;BME280;5763;42.714;23.244;2022-12-07T00:22:20;94551.06;;;8.62;77.32
11415;BME280;5763;42.714;23.244;2022-12-07T00:24:47;94546.91;;;8.70;77.17
11415;BME280;5763;42.714;23.244;2022-12-07T00:27:15;94542.09;;;8.74;76.82
11415;BME280;5763;42.714;23.244;2022-12-07T00:29:41;94548.13;;;8.69;76.88
11415;BME280;5763;42.714;23.244;2022-12-07T00:32:08;94555.66;;;8.65;76.90
11415;BME280;5763;42.714;23.244;2022-12-07T00:34:35;94558.63;;;8.58;77.32
11415;BME280;5763;42.714;23.244;2022-12-07T00:37:02;94557.00;;;8.48;77.95
11415;BME280;5763;42.714;23.244;2022-12-07T00:39:29;94550.59;;;8.42;78.46
11415;BME280;5763;42.714;23.244;2022-12-07T00:41:55;94550.88;;;8.57;77.83
11415;BME280;5763;42.714;23.244;2022-12-07T00:44:23;94549.75;;;8.67;77.57
11415;BME280;5763;42.714;23.244;2022-12-07T00:46:50;94546.34;;;8.75;76.93
11415;BME280;5763;42.714;23.244;2022-12-07T00:49:17;94543.50;;;8.79;77.09
11415;BME280;5763;42.714;23.244;2022-12-07T00:51:44;94544.28;;;8.79;77.07
11415;BME280;5763;42.714;23.244;2022-12-07T00:54:11;94547.00;;;8.79;77.39
11415;BME280;5763;42.714;23.244;2022-12-07T00:56:38;94543.50;;;8.79;77.29
11415;BME280;5763;42.714;23.244;2022-12-07T00:59:04;94545.13;;;8.76;77.66
11415;BME280;5763;42.714;23.244;2022-12-07T01:01:34;94544.56;;;8.81;77.46
11415;BME280;5763;42.714;23.244;2022-12-07T01:04:02;94547.88;;;8.76;77.46
11415;BME280;5763;42.714;23.244;2022-12-07T01:06:30;94548.19;;;8.78;77.51
11415;BME280;5763;42.714;23.244;2022-12-07T01:08:57;94544.13;;;8.83;76.98
11415;BME280;5763;42.714;23.244;2022-12-07T01:11:26;94538.13;;;8.88;76.85
11415;BME280;5763;42.714;23.244;2022-12-07T01:13:55;94540.97;;;8.84;76.62
11415;BME280;5763;42.714;23.244;2022-12-07T01:16:25;94543.19;;;8.77;76.64
11415;BME280;5763;42.714;23.244;2022-12-07T01:18:54;94535.47;;;8.63;77.94
11415;BME280;5763;42.714;23.244;2022-12-07T01:21:23;94538.09;;;8.54;78.11
11415;BME280;5763;42.714;23.244;2022-12-07T01:23:51;94529.06;;;8.57;78.55
11415;BME280;5763;42.714;23.244;2022-12-07T01:26:20;94528.50;;;8.62;77.99
11415;BME280;5763;42.714;23.244;2022-12-07T01:28:47;94512.41;;;8.42;78.05
11415;BME280;5763;42.714;23.244;2022-12-07T01:31:16;94530.38;;;8.52;78.65
11415;BME280;5763;42.714;23.244;2022-12-07T01:33:45;94520.66;;;8.51;78.37
11415;BME280;5763;42.714;23.244;2022-12-07T01:36:15;94518.28;;;8.53;78.33
11415;BME280;5763;42.714;23.244;2022-12-07T01:38:43;94526.00;;;8.55;79.05
11415;BME280;5763;42.714;23.244;2022-12-07T01:41:10;94519.09;;;8.63;78.46
11415;BME280;5763;42.714;23.244;2022-12-07T01:46:47;94519.53;;;8.61;78.19
11415;BME280;5763;42.714;23.244;2022-12-07T01:49:19;94516.94;;;8.58;78.98
11415;BME280;5763;42.714;23.244;2022-12-07T01:51:52;94508.56;;;8.52;79.48
11415;BME280;5763;42.714;23.244;2022-12-07T01:54:22;94503.88;;;8.53;79.46
11415;BME280;5763;42.714;23.244;2022-12-07T01:56:51;94515.09;;;8.55;79.18
11415;BME280;5763;42.714;23.244;2022-12-07T01:59:21;94509.19;;;8.56;79.37
11415;BME280;5763;42.714;23.244;2022-12-07T02:01:50;94512.56;;;8.60;78.75
11415;BME280;5763;42.714;23.244;2022-12-07T02:04:18;94510.28;;;8.59;78.83
11415;BME280;5763;42.714;23.244;2022-12-07T02:06:45;94506.44;;;8.69;78.76
11415;BME280;5763;42.714;23.244;2022-12-07T02:09:14;94509.59;;;8.67;78.71
11415;BME280;5763;42.714;23.244;2022-12-07T02:11:41;94509.94;;;8.69;78.25
11415;BME280;5763;42.714;23.244;2022-12-07T02:14:08;94505.69;;;8.68;78.47
11415;BME280;5763;42.714;23.244;2022-12-07T02:16:43;94501.53;;;8.64;78.37
11415;BME280;5763;42.714;23.244;2022-12-07T02:19:39;94489.66;;;8.58;79.13
11415;BME280;5763;42.714;23.244;2022-12-07T02:22:23;94498.25;;;8.69;78.42
11415;BME280;5763;42.714;23.244;2022-12-07T02:25:04;94496.22;;;8.60;78.82
11415;BME280;5763;42.714;23.244;2022-12-07T02:27:39;94506.91;;;8.55;78.92
11415;BME280;5763;42.714;23.244;2022-12-07T02:30:13;94493.38;;;8.51;78.67
11415;BME280;5763;42.714;23.244;2022-12-07T02:32:46;94462.91;;;8.31;79.07
11415;BME280;5763;42.714;23.244;2022-12-07T02:35:18;94483.59;;;8.41;78.98
11415;BME280;5763;42.714;23.244;2022-12-07T02:37:53;94490.03;;;8.47;78.69
11415;BME280;5763;42.714;23.244;2022-12-07T02:40:29;94496.91;;;8.52;78.31
11415;BME280;5763;42.714;23.244;2022-12-07T02:43:02;94498.97;;;8.48;78.14
11415;BME280;5763;42.714;23.244;2022-12-07T02:45:34;94479.91;;;8.35;78.33
11415;BME280;5763;42.714;23.244;2022-12-07T02:48:02;94493.44;;;8.26;78.70
11415;BME280;5763;42.714;23.244;2022-12-07T02:50:30;94491.50;;;8.27;78.60
11415;BME280;5763;42.714;23.244;2022-12-07T02:52:57;94483.19;;;8.18;79.40
11415;BME280;5763;42.714;23.244;2022-12-07T02:55:28;94474.81;;;8.12;79.69
11415;BME280;5763;42.714;23.244;2022-12-07T02:58:16;94474.06;;;8.24;79.40
11415;BME280;5763;42.714;23.244;2022-12-07T03:00:52;94469.13;;;8.19;79.38
11415;BME280;5763;42.714;23.244;2022-12-07T03:03:22;94472.84;;;8.25;79.10
11415;BME280;5763;42.714;23.244;2022-12-07T03:05:59;94476.66;;;8.28;78.41
11415;BME280;5763;42.714;23.244;2022-12-07T03:08:37;94466.84;;;8.18;78.82
11415;BME280;5763;42.714;23.244;2022-12-07T03:11:07;94468.47;;;8.15;79.47
11415;BME280;5763;42.714;23.244;2022-12-07T03:13:39;94467.97;;;8.20;79.51
11415;BME280;5763;42.714;23.244;2022-12-07T03:16:14;94466.19;;;8.14;79.65
11415;BME280;5763;42.714;23.244;2022-12-07T03:18:45;94469.13;;;8.19;79.28
11415;BME280;5763;42.714;23.244;2022-12-07T03:21:15;94472.28;;;8.18;78.97
11415;BME280;5763;42.714;23.244;2022-12-07T03:23:46;94475.56;;;8.13;79.27
11415;BME280;5763;42.714;23.244;2022-12-07T03:26:15;94470.56;;;8.11;79.60
11415;BME280;5763;42.714;23.244;2022-12-07T03:28:49;94469.81;;;8.11;79.76
11415;BME280;5763;42.714;23.244;2022-12-07T03:31:21;94464.47;;;8.07;79.35
11415;BME280;5763;42.714;23.244;2022-12-07T03:33:54;94470.78;;;8.17;79.65
11415;BME280;5763;42.714;23.244;2022-12-07T03:36:30;94470.38;;;8.06;79.61
11415;BME280;5763;42.714;23.244;2022-12-07T03:39:04;94469.03;;;8.10;79.76
11415;BME280;5763;42.714;23.244;2022-12-07T03:41:36;94466.88;;;8.05;79.98
11415;BME280;5763;42.714;23.244;2022-12-07T03:44:05;94481.56;;;8.08;79.73
11415;BME280;5763;42.714;23.244;2022-12-07T03:46:37;94480.19;;;8.03;79.64
11415;BME280;5763;42.714;23.244;2022-12-07T03:49:13;94477.75;;;8.05;79.81
11415;BME280;5763;42.714;23.244;2022-12-07T03:51:50;94464.91;;;8.18;79.57
11415;BME280;5763;42.714;23.244;2022-12-07T03:54:21;94462.91;;;8.19;79.42
11415;BME280;5763;42.714;23.244;2022-12-07T03:56:50;94461.50;;;8.14;79.37
11415;BME280;5763;42.714;23.244;2022-12-07T03:59:18;94457.81;;;8.08;79.73
11415;BME280;5763;42.714;23.244;2022-12-07T04:01:52;94463.16;;;8.24;79.16
11415;BME280;5763;42.714;23.244;2022-12-07T04:04:19;94459.56;;;8.27;78.82
11415;BME280;5763;42.714;23.244;2022-12-07T04:06:46;94452.56;;;8.26;78.56
11415;BME280;5763;42.714;23.244;2022-12-07T04:09:13;94463.59;;;8.23;78.51
11415;BME280;5763;42.714;23.244;2022-12-07T04:11:40;94457.28;;;8.26;78.30
11415;BME280;5763;42.714;23.244;2022-12-07T04:14:07;94464.69;;;8.25;78.74
11415;BME280;5763;42.714;23.244;2022-12-07T04:16:49;94461.09;;;8.28;78.27
11415;BME280;5763;42.714;23.244;2022-12-07T04:19:17;94466.66;;;8.25;78.35
11415;BME280;5763;42.714;23.244;2022-12-07T04:21:44;94458.91;;;8.23;78.90
11415;BME280;5763;42.714;23.244;2022-12-07T04:24:12;94468.91;;;8.26;78.71
11415;BME280;5763;42.714;23.244;2022-12-07T04:26:39;94471.09;;;8.31;78.30
11415;BME280;5763;42.714;23.244;2022-12-07T04:29:06;94454.97;;;8.24;78.48
11415;BME280;5763;42.714;23.244;2022-12-07T04:31:33;94470.78;;;8.29;78.35
11415;BME280;5763;42.714;23.244;2022-12-07T04:34:01;94470.34;;;8.18;78.45
11415;BME280;5763;42.714;23.244;2022-12-07T04:36:28;94463.16;;;8.12;78.91
11415;BME280;5763;42.714;23.244;2022-12-07T04:38:55;94462.19;;;8.06;79.55
11415;BME280;5763;42.714;23.244;2022-12-07T04:41:23;94459.88;;;8.17;78.77
11415;BME280;5763;42.714;23.244;2022-12-07T04:43:53;94461.41;;;8.18;78.86
11415;BME280;5763;42.714;23.244;2022-12-07T04:46:20;94465.22;;;8.20;78.85
11415;BME280;5763;42.714;23.244;2022-12-07T04:48:47;94470.69;;;8.20;78.59
11415;BME280;5763;42.714;23.244;2022-12-07T04:51:18;94477.09;;;8.26;78.59
11415;BME280;5763;42.714;23.244;2022-12-07T04:53:45;94436.16;;;8.05;78.47
11415;BME280;5763;42.714;23.244;2022-12-07T04:56:12;94481.38;;;8.27;78.18
11415;BME280;5763;42.714;23.244;2022-12-07T04:58:40;94477.09;;;8.26;78.25
11415;BME280;5763;42.714;23.244;2022-12-07T05:01:07;94476.13;;;8.20;78.65
11415;BME280;5763;42.714;23.244;2022-12-07T05:03:33;94475.25;;;8.23;78.01
11415;BME280;5763;42.714;23.244;2022-12-07T05:06:00;94474.50;;;8.23;77.82
11415;BME280;5763;42.714;23.244;2022-12-07T05:08:29;94460.56;;;8.21;78.36
11415;BME280;5763;42.714;23.244;2022-12-07T05:10:55;94471.22;;;8.15;78.37
11415;BME280;5763;42.714;23.244;2022-12-07T05:13:23;94469.25;;;8.16;78.16
11415;BME280;5763;42.714;23.244;2022-12-07T05:15:49;94468.72;;;8.08;78.22
11415;BME280;5763;42.714;23.244;2022-12-07T05:18:17;94469.59;;;8.05;77.92
11415;BME280;5763;42.714;23.244;2022-12-07T05:20:44;94465.25;;;7.95;78.60
11415;BME280;5763;42.714;23.244;2022-12-07T05:23:11;94471.59;;;7.92;79.11
11415;BME280;5763;42.714;23.244;2022-12-07T05:25:39;94480.41;;;7.96;79.16
11415;BME280;5763;42.714;23.244;2022-12-07T05:28:06;94469.59;;;7.93;79.63
11415;BME280;5763;42.714;23.244;2022-12-07T05:30:33;94466.69;;;7.87;79.33
11415;BME280;5763;42.714;23.244;2022-12-07T05:33:00;94463.31;;;7.83;79.51
11415;BME280;5763;42.714;23.244;2022-12-07T05:35:28;94472.34;;;7.80;79.68
11415;BME280;5763;42.714;23.244;2022-12-07T05:37:55;94471.78;;;7.85;79.71
11415;BME280;5763;42.714;23.244;2022-12-07T05:40:22;94472.13;;;7.87;79.78
11415;BME280;5763;42.714;23.244;2022-12-07T05:42:50;94460.81;;;7.89;79.35
11415;BME280;5763;42.714;23.244;2022-12-07T05:45:17;94462.53;;;7.95;79.33
11415;BME280;5763;42.714;23.244;2022-12-07T05:47:44;94456.53;;;8.00;78.90
11415;BME280;5763;42.714;23.244;2022-12-07T05:50:10;94455.22;;;8.05;78.60
11415;BME280;5763;42.714;23.244;2022-12-07T05:52:37;94465.44;;;8.13;79.14
11415;BME280;5763;42.714;23.244;2022-12-07T05:55:05;94459.22;;;8.13;79.52
11415;BME280;5763;42.714;23.244;2022-12-07T05:57:32;94456.38;;;8.16;79.04
11415;BME280;5763;42.714;23.244;2022-12-07T06:00:00;94456.06;;;8.14;78.87
11415;BME280;5763;42.714;23.244;2022-12-07T06:02:26;94451.59;;;8.20;78.58
11415;BME280;5763;42.714;23.244;2022-12-07T06:04:53;94458.91;;;8.23;78.93
11415;BME280;5763;42.714;23.244;2022-12-07T06:07:19;94460.75;;;8.26;78.42
11415;BME280;5763;42.714;23.244;2022-12-07T06:09:46;94462.50;;;8.20;78.13
11415;BME280;5763;42.714;23.244;2022-12-07T06:12:13;94459.78;;;8.20;78.60
11415;BME280;5763;42.714;23.244;2022-12-07T06:14:54;94458.13;;;8.10;79.15
11415;BME280;5763;42.714;23.244;2022-12-07T06:17:22;94460.97;;;8.07;79.76
11415;BME280;5763;42.714;23.244;2022-12-07T06:19:49;94462.16;;;8.18;79.18
11415;BME280;5763;42.714;23.244;2022-12-07T06:22:16;94456.94;;;8.11;79.56
11415;BME280;5763;42.714;23.244;2022-12-07T06:24:43;94471.84;;;8.19;79.51
11415;BME280;5763;42.714;23.244;2022-12-07T06:27:10;94466.72;;;8.34;79.22
11415;BME280;5763;42.714;23.244;2022-12-07T06:29:37;94477.63;;;8.34;79.30
11415;BME280;5763;42.714;23.244;2022-12-07T06:32:04;94483.41;;;8.36;79.16
11415;BME280;5763;42.714;23.244;2022-12-07T06:34:32;94474.34;;;8.39;79.11
11415;BME280;5763;42.714;23.244;2022-12-07T06:36:59;94477.28;;;8.44;79.04
11415;BME280;5763;42.714;23.244;2022-12-07T06:39:27;94476.16;;;8.54;78.63
11415;BME280;5763;42.714;23.244;2022-12-07T06:41:55;94474.44;;;8.48;78.51
11415;BME280;5763;42.714;23.244;2022-12-07T06:44:22;94481.66;;;8.42;78.76
11415;BME280;5763;42.714;23.244;2022-12-07T06:46:49;94482.94;;;8.50;78.42
11415;BME280;5763;42.714;23.244;2022-12-07T06:49:16;94489.56;;;8.49;77.85
11415;BME280;5763;42.714;23.244;2022-12-07T06:51:45;94499.56;;;8.30;78.68
11415;BME280;5763;42.714;23.244;2022-12-07T06:54:13;94493.88;;;8.37;78.63
11415;BME280;5763;42.714;23.244;2022-12-07T06:56:40;94493.25;;;8.21;79.23
11415;BME280;5763;42.714;23.244;2022-12-07T06:59:07;94483.28;;;8.39;78.94
11415;BME280;5763;42.714;23.244;2022-12-07T07:01:35;94480.88;;;8.41;78.76
11415;BME280;5763;42.714;23.244;2022-12-07T07:04:02;94488.91;;;8.57;77.85
11415;BME280;5763;42.714;23.244;2022-12-07T07:06:29;94489.53;;;8.61;77.53
11415;BME280;5763;42.714;23.244;2022-12-07T07:08:57;94491.47;;;8.73;76.44
11415;BME280;5763;42.714;23.244;2022-12-07T07:11:24;94494.59;;;8.50;77.31
11415;BME280;5763;42.714;23.244;2022-12-07T07:13:51;94489.91;;;8.51;77.65
11415;BME280;5763;42.714;23.244;2022-12-07T07:16:18;94493.78;;;8.62;77.66
11415;BME280;5763;42.714;23.244;2022-12-07T07:18:45;94487.19;;;8.51;78.10
11415;BME280;5763;42.714;23.244;2022-12-07T07:21:12;94490.88;;;8.57;78.16
11415;BME280;5763;42.714;23.244;2022-12-07T07:23:38;94496.13;;;8.51;78.39
11415;BME280;5763;42.714;23.244;2022-12-07T07:26:06;94485.56;;;8.53;78.47
11415;BME280;5763;42.714;23.244;2022-12-07T07:28:33;94486.38;;;8.63;78.20
11415;BME280;5763;42.714;23.244;2022-12-07T07:31:00;94493.16;;;8.58;77.96
11415;BME280;5763;42.714;23.244;2022-12-07T07:33:27;94488.28;;;8.53;77.98
11415;BME280;5763;42.714;23.244;2022-12-07T07:35:53;94494.34;;;8.57;78.12
11415;BME280;5763;42.714;23.244;2022-12-07T07:38:20;94489.88;;;8.63;78.23
11415;BME280;5763;42.714;23.244;2022-12-07T07:40:47;94497.25;;;8.75;77.18
11415;BME280;5763;42.714;23.244;2022-12-07T07:43:15;94493.13;;;8.92;76.38
11415;BME280;5763;42.714;23.244;2022-12-07T07:45:41;94491.13;;;9.05;75.62
11415;BME280;5763;42.714;23.244;2022-12-07T07:48:08;94497.22;;;9.09;75.00
11415;BME280;5763;42.714;23.244;2022-12-07T07:50:35;94494.78;;;9.11;74.29
11415;BME280;5763;42.714;23.244;2022-12-07T07:53:01;94492.69;;;9.15;74.35
11415;BME280;5763;42.714;23.244;2022-12-07T07:55:28;94478.72;;;9.13;74.18
11415;BME280;5763;42.714;23.244;2022-12-07T07:57:55;94485.47;;;9.21;73.80
11415;BME280;5763;42.714;23.244;2022-12-07T08:00:24;94490.22;;;9.08;74.36
11415;BME280;5763;42.714;23.244;2022-12-07T08:02:51;94494.78;;;9.11;74.07
11415;BME280;5763;42.714;23.244;2022-12-07T08:05:18;94493.91;;;8.93;75.03
11415;BME280;5763;42.714;23.244;2022-12-07T08:07:45;94492.91;;;8.99;75.03
11415;BME280;5763;42.714;23.244;2022-12-07T08:10:13;94492.25;;;8.95;74.74
11415;BME280;5763;42.714;23.244;2022-12-07T08:12:41;94486.16;;;8.91;75.34
11415;BME280;5763;42.714;23.244;2022-12-07T08:15:21;94492.91;;;8.99;74.88
11415;BME280;5763;42.714;23.244;2022-12-07T08:17:49;94483.88;;;9.11;74.52
11415;BME280;5763;42.714;23.244;2022-12-07T08:20:16;94489.97;;;9.15;74.57
11415;BME280;5763;42.714;23.244;2022-12-07T08:22:43;94485.00;;;9.23;74.03
11415;BME280;5763;42.714;23.244;2022-12-07T08:25:10;94487.31;;;9.24;74.43
11415;BME280;5763;42.714;23.244;2022-12-07T08:27:36;94491.97;;;9.45;73.51
11415;BME280;5763;42.714;23.244;2022-12-07T08:30:04;94486.09;;;9.56;73.05
11415;BME280;5763;42.714;23.244;2022-12-07T08:32:31;94491.25;;;9.54;73.08
11415;BME280;5763;42.714;23.244;2022-12-07T08:34:59;94496.59;;;9.57;72.94
11415;BME280;5763;42.714;23.244;2022-12-07T08:37:26;94498.69;;;9.53;73.02
11415;BME280;5763;42.714;23.244;2022-12-07T08:39:53;94486.25;;;9.52;72.26
11415;BME280;5763;42.714;23.244;2022-12-07T08:42:20;94487.13;;;9.49;72.82
11415;BME280;5763;42.714;23.244;2022-12-07T08:44:48;94476.84;;;9.53;73.06
11415;BME280;5763;42.714;23.244;2022-12-07T08:47:15;94482.19;;;9.66;72.42
11415;BME280;5763;42.714;23.244;2022-12-07T08:49:44;94475.13;;;9.77;72.10
11415;BME280;5763;42.714;23.244;2022-12-07T08:52:14;94476.81;;;9.84;71.55
11415;BME280;5763;42.714;23.244;2022-12-07T08:54:42;94465.84;;;9.75;71.97
11415;BME280;5763;42.714;23.244;2022-12-07T08:57:09;94471.13;;;9.69;72.17
11415;BME280;5763;42.714;23.244;2022-12-07T08:59:37;94467.09;;;9.83;72.03
11415;BME280;5763;42.714;23.244;2022-12-07T09:02:04;94466.47;;;10.18;71.59
11415;BME280;5763;42.714;23.244;2022-12-07T09:04:31;94462.09;;;10.39;70.08
11415;BME280;5763;42.714;23.244;2022-12-07T09:06:58;94465.00;;;10.44;69.83
11415;BME280;5763;42.714;23.244;2022-12-07T09:09:26;94465.94;;;10.77;68.40
11415;BME280;5763;42.714;23.244;2022-12-07T09:11:53;94466.41;;;10.94;67.57
11415;BME280;5763;42.714;23.244;2022-12-07T09:14:20;94450.41;;;11.01;67.32
11415;BME280;5763;42.714;23.244;2022-12-07T09:16:47;94458.66;;;10.83;67.75
11415;BME280;5763;42.714;23.244;2022-12-07T09:19:14;94458.78;;;10.98;67.17
11415;BME280;5763;42.714;23.244;2022-12-07T09:21:40;94455.66;;;11.59;66.42
11415;BME280;5763;42.714;23.244;2022-12-07T09:24:07;94397.94;;;12.18;62.90
11415;BME280;5763;42.714;23.244;2022-12-07T09:26:36;94448.31;;;12.77;60.48
11415;BME280;5763;42.714;23.244;2022-12-07T09:29:04;94442.94;;;12.59;61.24
11415;BME280;5763;42.714;23.244;2022-12-07T09:31:31;94441.03;;;12.50;61.42
11415;BME280;5763;42.714;23.244;2022-12-07T09:33:59;94439.50;;;12.26;61.60
11415;BME280;5763;42.714;23.244;2022-12-07T09:36:28;94432.25;;;11.90;62.41
11415;BME280;5763;42.714;23.244;2022-12-07T09:38:55;94433.75;;;11.91;63.04
11415;BME280;5763;42.714;23.244;2022-12-07T09:41:24;94424.47;;;11.89;63.06
11415;BME280;5763;42.714;23.244;2022-12-07T09:43:58;94439.47;;;11.70;63.57
11415;BME280;5763;42.714;23.244;2022-12-07T09:46:27;94436.75;;;11.61;63.77
11415;BME280;5763;42.714;23.244;2022-12-07T09:48:54;94430.19;;;11.58;63.83
11415;BME280;5763;42.714;23.244;2022-12-07T09:51:22;94428.25;;;11.59;63.59
11415;BME280;5763;42.714;23.244;2022-12-07T09:53:50;94425.16;;;11.75;63.84
11415;BME280;5763;42.714;23.244;2022-12-07T09:56:18;94421.97;;;11.67;64.42
11415;BME280;5763;42.714;23.244;2022-12-07T09:58:46;94419.34;;;12.05;63.27
11415;BME280;5763;42.714;23.244;2022-12-07T10:01:17;94420.56;;;12.98;60.41
11415;BME280;5763;42.714;23.244;2022-12-07T10:03:49;94411.75;;;13.52;57.90
11415;BME280;5763;42.714;23.244;2022-12-07T10:06:16;94415.63;;;13.46;57.91
11415;BME280;5763;42.714;23.244;2022-12-07T10:08:43;94402.75;;;13.23;58.10
11415;BME280;5763;42.714;23.244;2022-12-07T10:11:10;94410.06;;;13.40;57.73
11415;BME280;5763;42.714;23.244;2022-12-07T10:13:39;94403.78;;;13.69;56.72
11415;BME280;5763;42.714;23.244;2022-12-07T10:16:07;94394.31;;;14.04;56.06
11415;BME280;5763;42.714;23.244;2022-12-07T10:18:55;94386.66;;;14.28;54.04
11415;BME280;5763;42.714;23.244;2022-12-07T10:21:23;94375.44;;;14.32;54.71
11415;BME280;5763;42.714;23.244;2022-12-07T10:24:01;94371.94;;;14.51;54.05
11415;BME280;5763;42.714;23.244;2022-12-07T10:26:33;94368.94;;;14.15;54.56
11415;BME280;5763;42.714;23.244;2022-12-07T10:29:04;94370.88;;;13.60;56.41
11415;BME280;5763;42.714;23.244;2022-12-07T10:31:40;94370.06;;;13.39;56.50
11415;BME280;5763;42.714;23.244;2022-12-07T10:34:21;94361.25;;;13.35;57.13
11415;BME280;5763;42.714;23.244;2022-12-07T10:36:49;94359.38;;;13.27;57.46
11415;BME280;5763;42.714;23.244;2022-12-07T10:39:18;94365.38;;;13.60;56.29
11415;BME280;5763;42.714;23.244;2022-12-07T10:41:55;94359.16;;;13.59;56.86
11415;BME280;5763;42.714;23.244;2022-12-07T10:44:24;94363.72;;;13.48;56.80
11415;BME280;5763;42.714;23.244;2022-12-07T10:47:14;94355.56;;;13.39;57.13
11415;BME280;5763;42.714;23.244;2022-12-07T10:50:14;94350.09;;;13.24;57.01
11415;BME280;5763;42.714;23.244;2022-12-07T10:55:56;94346.94;;;13.31;56.39
11415;BME280;5763;42.714;23.244;2022-12-07T10:58:38;94334.56;;;13.70;55.83
11415;BME280;5763;42.714;23.244;2022-12-07T11:01:18;94338.72;;;14.80;53.03
11415;BME280;5763;42.714;23.244;2022-12-07T11:04:07;94317.97;;;16.14;49.11
11415;BME280;5763;42.714;23.244;2022-12-07T11:06:47;94320.28;;;16.85;46.28
11415;BME280;5763;42.714;23.244;2022-12-07T11:12:22;94314.53;;;17.05;44.49
11415;BME280;5763;42.714;23.244;2022-12-07T11:14:56;94302.44;;;16.86;44.90
11415;BME280;5763;42.714;23.244;2022-12-07T11:17:33;94300.91;;;16.74;45.24
11415;BME280;5763;42.714;23.244;2022-12-07T11:20:15;94298.19;;;16.96;45.28
11415;BME280;5763;42.714;23.244;2022-12-07T11:22:53;94289.97;;;17.41;43.43
11415;BME280;5763;42.714;23.244;2022-12-07T11:25:31;94293.63;;;18.77;41.30
11415;BME280;5763;42.714;23.244;2022-12-07T11:28:13;94288.34;;;20.32;38.24
11415;BME280;5763;42.714;23.244;2022-12-07T11:30:48;94289.38;;;21.46;35.16
11415;BME280;5763;42.714;23.244;2022-12-07T11:33:24;94281.22;;;22.37;32.95
11415;BME280;5763;42.714;23.244;2022-12-07T11:36:01;94294.84;;;23.39;31.24
11415;BME280;5763;42.714;23.244;2022-12-07T11:38:37;94289.03;;;25.03;28.72
11415;BME280;5763;42.714;23.244;2022-12-07T11:41:08;94290.69;;;25.41;28.23
11415;BME280;5763;42.714;23.244;2022-12-07T11:44:00;94282.53;;;25.15;27.98
11415;BME280;5763;42.714;23.244;2022-12-07T11:46:43;94280.00;;;23.85;30.03
11415;BME280;5763;42.714;23.244;2022-12-07T11:49:16;94276.25;;;24.87;28.41
11415;BME280;5763;42.714;23.244;2022-12-07T11:51:47;94266.81;;;26.53;26.37
11415;BME280;5763;42.714;23.244;2022-12-07T11:54:21;94270.03;;;27.11;25.41
11415;BME280;5763;42.714;23.244;2022-12-07T11:56:51;94261.44;;;27.09;25.19
11415;BME280;5763;42.714;23.244;2022-12-07T11:59:23;94262.91;;;27.57;24.73
11415;BME280;5763;42.714;23.244;2022-12-07T12:01:57;94262.53;;;27.21;24.82
11415;BME280;5763;42.714;23.244;2022-12-07T12:04:34;94256.09;;;27.68;24.15
11415;BME280;5763;42.714;23.244;2022-12-07T12:07:06;94248.53;;;26.99;24.92
11415;BME280;5763;42.714;23.244;2022-12-07T12:09:40;94254.69;;;25.98;25.82
11415;BME280;5763;42.714;23.244;2022-12-07T12:12:23;94255.47;;;26.06;25.76
11415;BME280;5763;42.714;23.244;2022-12-07T12:15:06;94246.91;;;26.88;25.02
11415;BME280;5763;42.714;23.244;2022-12-07T12:18:07;94235.44;;;27.41;24.60
11415;BME280;5763;42.714;23.244;2022-12-07T12:20:42;94237.47;;;26.39;25.67
11415;BME280;5763;42.714;23.244;2022-12-07T12:23:12;94238.72;;;25.25;26.80
11415;BME280;5763;42.714;23.244;2022-12-07T12:25:45;94236.22;;;24.36;27.75
11415;BME280;5763;42.714;23.244;2022-12-07T12:28:23;94235.03;;;23.55;29.57
11415;BME280;5763;42.714;23.244;2022-12-07T12:31:10;94227.38;;;23.55;29.68
11415;BME280;5763;42.714;23.244;2022-12-07T12:33:43;94218.78;;;23.53;30.02
11415;BME280;5763;42.714;23.244;2022-12-07T12:36:24;94212.72;;;24.39;28.71
11415;BME280;5763;42.714;23.244;2022-12-07T12:39:07;94203.63;;;25.62;27.51
11415;BME280;5763;42.714;23.244;2022-12-07T12:42:01;94212.44;;;26.18;26.52
11415;BME280;5763;42.714;23.244;2022-12-07T12:44:41;94205.91;;;25.93;26.73
11415;BME280;5763;42.714;23.244;2022-12-07T12:47:42;94204.88;;;26.51;25.99
11415;BME280;5763;42.714;23.244;2022-12-07T12:50:20;94200.84;;;26.84;25.46
11415;BME280;5763;42.714;23.244;2022-12-07T12:56:06;94204.97;;;26.06;25.97
11415;BME280;5763;42.714;23.244;2022-12-07T12:58:41;94212.03;;;25.69;26.45
11415;BME280;5763;42.714;23.244;2022-12-07T13:01:38;94212.59;;;25.30;26.92
11415;BME280;5763;42.714;23.244;2022-12-07T13:04:24;94214.78;;;24.10;28.70
11415;BME280;5763;42.714;23.244;2022-12-07T13:06:52;94209.75;;;22.73;30.38
11415;BME280;5763;42.714;23.244;2022-12-07T13:09:23;94208.09;;;22.18;31.30
11415;BME280;5763;42.714;23.244;2022-12-07T13:11:58;94212.56;;;21.69;32.31
11415;BME280;5763;42.714;23.244;2022-12-07T13:14:54;94208.34;;;21.18;33.10
11415;BME280;5763;42.714;23.244;2022-12-07T13:17:58;94208.97;;;20.55;34.42
11415;BME280;5763;42.714;23.244;2022-12-07T13:20:45;94215.72;;;20.23;35.76
11415;BME280;5763;42.714;23.244;2022-12-07T13:23:12;94202.09;;;19.95;36.24
11415;BME280;5763;42.714;23.244;2022-12-07T13:25:46;94203.56;;;19.78;36.56
11415;BME280;5763;42.714;23.244;2022-12-07T13:28:17;94204.16;;;19.71;36.71
11415;BME280;5763;42.714;23.244;2022-12-07T13:31:04;94197.50;;;19.26;37.63
11415;BME280;5763;42.714;23.244;2022-12-07T13:33:36;94190.94;;;19.29;38.04
11415;BME280;5763;42.714;23.244;2022-12-07T13:36:03;94191.69;;;18.94;38.39
11415;BME280;5763;42.714;23.244;2022-12-07T13:38:32;94198.75;;;18.60;39.24